Time;durP1;ratioP1;P1;durP2;ratioP2;P2;SDS_P1;SDS_P2;PMS_P1;PMS_P2;Temp;Humidity;BMP_temperature;BMP_pressure;BME280_temperature;BME280_humidity;BME280_pressure;Samples;Min_cycle;Max_cycle;Signal;HPM_P1;HPM_P2
2022/03/08 00:00:58;;;;;;;16.27;7.67;;;;;;;12.20;33.32;102469.50;5115099;27;20546;-72
2022/03/08 00:03:24;;;;;;;16.00;7.90;;;;;;;11.63;33.44;102466.25;5115233;27;20298;-72
2022/03/08 00:05:49;;;;;;;13.50;7.97;;;;;;;11.37;34.09;102464.22;5133018;27;20855;-72
2022/03/08 00:08:15;;;;;;;14.10;7.10;;;;;;;11.99;33.79;102470.19;5115090;27;20109;-72
2022/03/08 00:10:40;;;;;;;16.57;7.33;;;;;;;11.67;34.48;102468.03;5133376;27;20148;-71
2022/03/08 00:13:06;;;;;;;16.90;7.00;;;;;;;11.25;34.50;102469.28;5113490;27;20054;-72
2022/03/08 00:15:31;;;;;;;16.43;7.73;;;;;;;11.94;33.26;102466.63;5115831;27;20027;-72
2022/03/08 00:17:56;;;;;;;15.13;7.30;;;;;;;11.92;33.25;102463.06;5114755;27;20024;-72
2022/03/08 00:20:23;;;;;;;16.60;7.53;;;;;;;12.38;32.38;102468.78;5114715;27;20023;-72
2022/03/08 00:22:48;;;;;;;17.27;8.27;;;;;;;11.73;33.75;102461.97;5114612;27;20406;-72
2022/03/08 00:25:15;;;;;;;15.87;7.43;;;;;;;11.64;33.39;102461.91;5114165;27;20030;-72
2022/03/08 00:27:48;;;;;;;18.67;7.17;;;;;;;11.71;34.01;102458.47;5114112;27;20027;-72
2022/03/08 00:30:16;;;;;;;16.38;7.43;;;;;;;10.91;35.10;102447.88;5133259;27;20386;-73
2022/03/08 00:32:42;;;;;;;17.53;7.90;;;;;;;11.38;34.20;102450.25;5114172;27;20035;-72
2022/03/08 00:35:08;;;;;;;15.07;7.33;;;;;;;11.30;34.17;102451.88;5113950;27;20019;-72
2022/03/08 00:37:34;;;;;;;22.80;8.20;;;;;;;12.02;32.77;102438.75;5133396;27;20027;-73
2022/03/08 00:39:59;;;;;;;16.43;8.00;;;;;;;11.85;33.41;102440.28;5113758;27;20019;-72
2022/03/08 00:42:24;;;;;;;16.77;7.27;;;;;;;11.25;34.20;102437.88;5111641;27;20547;-72
2022/03/08 00:44:50;;;;;;;15.63;7.43;;;;;;;11.92;32.81;102442.09;5132784;27;20080;-72
2022/03/08 00:47:15;;;;;;;12.77;6.53;;;;;;;11.42;34.14;102439.81;5112851;27;20054;-72
2022/03/08 00:49:41;;;;;;;16.00;7.50;;;;;;;12.04;32.94;102437.00;5115193;27;20019;-72
2022/03/08 00:52:07;;;;;;;15.43;7.43;;;;;;;11.81;33.18;102434.13;5131920;27;20068;-72
2022/03/08 00:54:33;;;;;;;18.57;8.17;;;;;;;11.13;34.43;102432.47;5132474;27;20022;-72
2022/03/08 00:56:58;;;;;;;16.67;7.47;;;;;;;11.84;33.11;102439.44;5113836;27;20539;-72
2022/03/08 00:59:24;;;;;;;13.40;6.73;;;;;;;11.13;34.04;102438.59;5113395;27;20484;-72
2022/03/08 01:01:49;;;;;;;22.97;8.00;;;;;;;10.97;34.62;102439.22;5131678;27;20116;-72
2022/03/08 01:04:16;;;;;;;18.10;6.63;;;;;;;10.85;34.65;102438.22;5113970;27;20027;-72
2022/03/08 01:06:42;;;;;;;16.63;7.87;;;;;;;11.31;34.20;102437.94;5114189;27;20015;-72
2022/03/08 01:09:08;;;;;;;13.17;6.83;;;;;;;11.18;34.21;102425.53;5113176;27;20051;-72
2022/03/08 01:11:36;;;;;;;12.50;6.60;;;;;;;10.62;34.74;102439.56;5132161;27;20042;-72
2022/03/08 01:14:06;;;;;;;13.10;7.27;;;;;;;10.48;34.97;102431.53;5132134;27;20452;-72
2022/03/08 01:16:32;;;;;;;16.07;7.20;;;;;;;10.28;35.62;102429.44;5131929;27;20440;-72
2022/03/08 01:18:57;;;;;;;15.13;6.07;;;;;;;11.32;33.80;102429.22;5113912;27;20031;-72
2022/03/08 01:21:23;;;;;;;13.30;7.03;;;;;;;11.08;34.15;102428.91;5113476;27;20067;-72
2022/03/08 01:23:48;;;;;;;11.53;6.73;;;;;;;11.58;33.44;102418.19;5131466;27;20047;-72
2022/03/08 01:26:14;;;;;;;13.90;6.53;;;;;;;10.42;35.14;102428.81;5131626;27;20394;-73
2022/03/08 01:28:40;;;;;;;12.70;7.00;;;;;;;10.43;34.61;102430.59;5132253;27;20027;-72
2022/03/08 01:31:06;;;;;;;14.23;7.17;;;;;;;10.98;34.16;102418.31;5130662;27;20057;-72
2022/03/08 01:33:31;;;;;;;16.03;6.83;;;;;;;10.62;34.77;102424.78;5113731;27;20054;-72
2022/03/08 01:35:57;;;;;;;15.73;6.80;;;;;;;9.90;35.72;102421.81;5132041;27;20023;-72
2022/03/08 01:38:23;;;;;;;15.73;7.70;;;;;;;10.98;33.88;102418.31;5112434;27;21339;-73
2022/03/08 01:40:48;;;;;;;13.30;6.77;;;;;;;11.27;33.71;102417.81;5131956;27;20051;-72
2022/03/08 01:43:14;;;;;;;11.53;6.87;;;;;;;10.63;34.04;102421.31;5112699;27;20387;-72
2022/03/08 01:45:39;;;;;;;15.03;7.43;;;;;;;10.82;34.15;102413.72;5112362;27;20091;-72
2022/03/08 01:48:05;;;;;;;18.80;8.33;;;;;;;10.94;33.92;102411.28;5112692;27;20015;-72
2022/03/08 01:50:31;;;;;;;17.40;7.97;;;;;;;10.53;34.53;102408.94;5131220;27;20035;-73
2022/03/08 01:52:57;;;;;;;13.37;6.43;;;;;;;11.05;33.43;102395.72;5113464;27;20023;-72
2022/03/08 01:55:22;;;;;;;11.00;6.07;;;;;;;10.81;33.98;102404.13;5113221;27;20034;-72
2022/03/08 01:57:50;;;;;;;10.53;5.80;;;;;;;10.47;34.46;102406.25;5112418;27;20019;-71
2022/03/08 02:00:19;;;;;;;10.77;5.67;;;;;;;11.26;33.23;102391.63;5112411;27;20701;-72
2022/03/08 02:02:44;;;;;;;16.23;6.43;;;;;;;11.26;32.85;102392.50;5113011;27;20470;-72
2022/03/08 02:05:11;;;;;;;14.23;6.40;;;;;;;10.78;33.24;102393.63;5111984;27;20088;-72
2022/03/08 02:07:37;;;;;;;12.63;6.07;;;;;;;10.55;34.13;102390.66;5113565;27;20030;-73
2022/03/08 02:10:05;;;;;;;11.87;5.73;;;;;;;11.52;32.91;102384.06;5112763;27;20019;-72
2022/03/08 02:12:30;;;;;;;11.23;5.47;;;;;;;11.20;32.44;102382.84;5111788;27;20022;-72
2022/03/08 02:14:56;;;;;;;9.07;5.40;;;;;;;11.44;32.31;102364.78;5131576;27;20079;-72
2022/03/08 02:17:21;;;;;;;9.73;5.00;;;;;;;10.53;34.39;102367.13;5112552;27;20081;-72
2022/03/08 02:19:47;;;;;;;12.07;4.97;;;;;;;10.39;33.40;102364.31;5111959;27;20027;-72
2022/03/08 02:22:12;;;;;;;12.23;6.10;;;;;;;10.76;33.33;102353.50;5130855;27;20098;-72
2022/03/08 02:24:37;;;;;;;12.37;5.73;;;;;;;10.78;32.96;102349.16;5112946;27;20122;-72
2022/03/08 02:27:03;;;;;;;12.33;5.63;;;;;;;10.63;32.78;102357.66;5109690;28;20046;-72
2022/03/08 02:29:28;;;;;;;8.20;4.83;;;;;;;10.27;34.03;102354.50;5131032;28;20038;-72
2022/03/08 02:31:55;;;;;;;10.53;4.90;;;;;;;10.00;33.80;102350.59;5112870;28;20023;-72
2022/03/08 02:34:21;;;;;;;8.80;4.87;;;;;;;10.56;32.98;102346.25;5111927;28;20019;-72
2022/03/08 02:37:11;;;;;;;11.60;4.80;;;;;;;10.74;32.85;102347.34;5112812;28;20026;-72
2022/03/08 02:39:37;;;;;;;8.37;4.77;;;;;;;10.73;32.56;102338.66;5130372;28;20015;-72
2022/03/08 02:42:04;;;;;;;10.33;5.70;;;;;;;10.83;32.09;102337.03;5112323;28;20027;-72
2022/03/08 02:44:30;;;;;;;9.07;5.07;;;;;;;9.99;33.14;102347.97;5112574;28;20034;-72
2022/03/08 02:46:56;;;;;;;8.23;4.43;;;;;;;9.76;33.95;102339.75;5129390;28;20450;-72
2022/03/08 02:49:22;;;;;;;8.23;3.73;;;;;;;9.95;33.71;102344.41;5112443;28;20030;-72
2022/03/08 02:51:47;;;;;;;8.90;4.50;;;;;;;10.57;32.38;102328.84;5130981;27;20023;-73
2022/03/08 02:54:13;;;;;;;10.00;4.53;;;;;;;11.36;31.29;102331.53;5111571;28;20435;-72
2022/03/08 02:56:38;;;;;;;9.67;4.27;;;;;;;10.79;32.15;102330.00;5112314;28;20031;-72
2022/03/08 02:59:04;;;;;;;9.40;4.50;;;;;;;10.24;33.13;102323.09;5130870;27;20474;-72
2022/03/08 03:01:30;;;;;;;7.20;3.80;;;;;;;10.45;32.35;102321.69;5112050;28;20217;-73
2022/03/08 03:03:55;;;;;;;9.53;4.40;;;;;;;10.59;32.17;102314.94;5112254;28;20110;-72
2022/03/08 03:06:21;;;;;;;10.17;4.73;;;;;;;11.01;31.93;102303.22;5112380;28;20030;-72
2022/03/08 03:08:46;;;;;;;11.50;4.60;;;;;;;11.29;31.29;102310.50;5110988;28;20047;-72
2022/03/08 03:11:11;;;;;;;7.27;3.83;;;;;;;9.71;33.59;102323.09;5130386;28;20103;-72
2022/03/08 03:13:37;;;;;;;9.33;4.70;;;;;;;11.08;31.94;102319.00;5112424;28;20053;-72
2022/03/08 03:16:02;;;;;;;9.30;4.10;;;;;;;10.18;33.08;102323.00;5105916;27;20029;-72
2022/03/08 03:18:28;;;;;;;7.90;4.20;;;;;;;10.57;32.29;102311.41;5103173;27;20098;-72
2022/03/08 03:20:53;;;;;;;9.83;4.50;;;;;;;11.08;31.42;102304.19;5115400;27;20474;-72
2022/03/08 03:23:18;;;;;;;6.07;3.30;;;;;;;9.17;33.76;102308.19;5111819;28;20043;-72
2022/03/08 03:25:44;;;;;;;7.67;4.40;;;;;;;9.64;33.82;102303.84;5113074;28;20020;-72
2022/03/08 03:28:09;;;;;;;12.40;4.17;;;;;;;10.29;32.36;102305.75;5112356;28;20505;-72
2022/03/08 03:30:35;;;;;;;9.63;4.50;;;;;;;10.11;33.23;102295.00;5110892;28;20028;-72
2022/03/08 03:33:02;;;;;;;10.07;4.53;;;;;;;10.38;32.64;102291.09;5112762;28;20034;-72
2022/03/08 03:35:28;;;;;;;8.33;4.60;;;;;;;10.79;31.60;102288.16;5112184;28;20019;-73
2022/03/08 03:37:53;;;;;;;10.20;4.73;;;;;;;9.71;33.54;102299.59;5111519;28;20475;-72
2022/03/08 03:40:18;;;;;;;10.87;4.90;;;;;;;9.92;32.89;102284.28;5113424;28;20064;-72
2022/03/08 03:42:45;;;;;;;10.00;4.47;;;;;;;10.96;31.90;102283.09;5113840;28;20066;-72
2022/03/08 03:45:11;;;;;;;8.57;4.40;;;;;;;10.85;31.63;102280.34;5111192;28;20034;-72
2022/03/08 03:47:37;;;;;;;6.93;3.67;;;;;;;10.61;31.72;102287.03;5112325;28;20064;-72
2022/03/08 03:50:06;;;;;;;12.50;5.00;;;;;;;9.87;33.20;102288.56;5108103;28;20028;-72
2022/03/08 03:52:32;;;;;;;8.03;4.37;;;;;;;10.57;32.66;102287.88;5112497;28;20119;-72
2022/03/08 03:54:57;;;;;;;7.77;4.53;;;;;;;10.53;32.53;102293.91;5113635;28;20099;-72
2022/03/08 03:57:23;;;;;;;8.30;4.40;;;;;;;10.66;32.11;102290.59;5112618;28;20118;-72
2022/03/08 03:59:48;;;;;;;7.43;4.27;;;;;;;10.75;31.97;102283.75;5113829;28;20106;-72
2022/03/08 04:02:14;;;;;;;9.20;5.00;;;;;;;10.80;31.90;102287.28;5111431;28;20070;-72
2022/03/08 04:04:39;;;;;;;8.40;4.23;;;;;;;10.89;31.37;102282.16;5111917;28;20595;-72
2022/03/08 04:07:05;;;;;;;8.57;4.67;;;;;;;10.61;31.80;102287.03;5111528;28;20034;-72
2022/03/08 04:09:31;;;;;;;9.43;5.43;;;;;;;10.54;32.21;102282.59;5112074;28;20414;-72
2022/03/08 04:11:56;;;;;;;9.43;4.43;;;;;;;11.12;31.47;102281.53;5111127;28;20020;-71
2022/03/08 04:14:21;;;;;;;10.40;4.57;;;;;;;10.94;31.99;102285.72;5111923;28;20513;-72
2022/03/08 04:16:47;;;;;;;8.80;4.57;;;;;;;10.10;32.65;102285.44;5111888;28;20024;-72
2022/03/08 04:19:12;;;;;;;7.60;4.50;;;;;;;11.05;31.15;102292.81;5110221;28;20028;-72
2022/03/08 04:21:38;;;;;;;6.97;3.93;;;;;;;11.51;30.76;102282.78;5111745;28;20027;-72
2022/03/08 04:24:06;;;;;;;7.13;4.27;;;;;;;10.89;31.17;102283.91;5129589;27;20074;-72
2022/03/08 04:26:32;;;;;;;10.40;4.47;;;;;;;10.84;31.85;102286.47;5114334;27;20533;-72
2022/03/08 04:28:57;;;;;;;10.37;4.80;;;;;;;10.43;31.98;102281.59;5113462;27;20022;-72
2022/03/08 04:31:22;;;;;;;8.03;4.70;;;;;;;9.88;33.27;102282.50;5133664;27;20023;-72
2022/03/08 04:33:48;;;;;;;10.63;5.00;;;;;;;10.10;32.69;102278.47;5132378;27;20038;-72
2022/03/08 04:36:13;;;;;;;11.90;5.43;;;;;;;10.32;31.95;102274.44;5114405;27;20023;-72
2022/03/08 04:38:38;;;;;;;10.83;5.00;;;;;;;10.59;32.03;102280.94;5113966;27;20046;-72
2022/03/08 04:41:06;;;;;;;9.23;4.60;;;;;;;10.83;31.08;102282.09;5114164;27;20026;-72
2022/03/08 04:43:32;;;;;;;13.13;5.53;;;;;;;10.53;31.79;102283.44;5114459;27;20478;-72
2022/03/08 04:45:57;;;;;;;7.70;4.37;;;;;;;10.24;32.31;102291.72;5114878;27;20030;-72
2022/03/08 04:48:23;;;;;;;12.20;4.77;;;;;;;10.90;31.51;102283.91;5110930;27;20019;-72
2022/03/08 04:50:48;;;;;;;6.20;4.27;;;;;;;10.35;32.58;102269.28;5133034;27;20144;-72
2022/03/08 04:53:13;;;;;;;9.83;5.30;;;;;;;10.87;31.77;102273.44;5131697;27;20027;-72
2022/03/08 04:55:39;;;;;;;8.03;4.57;;;;;;;10.20;32.29;102279.47;5097672;27;20034;-72
2022/03/08 04:58:04;;;;;;;8.83;5.00;;;;;;;10.27;32.23;102270.88;5113580;27;20023;-72
2022/03/08 05:00:30;;;;;;;15.43;5.40;;;;;;;10.34;32.17;102256.16;5113653;27;20027;-72
2022/03/08 05:02:56;;;;;;;7.70;4.40;;;;;;;9.86;32.85;102252.84;5114024;27;20419;-72
2022/03/08 05:05:21;;;;;;;10.17;4.60;;;;;;;10.34;32.52;102251.84;5113755;27;20061;-72
2022/03/08 05:07:47;;;;;;;13.30;5.30;;;;;;;9.37;33.50;102258.13;5112565;27;20038;-72
2022/03/08 05:10:13;;;;;;;13.13;5.13;;;;;;;9.84;32.84;102255.44;5132259;27;20106;-72
2022/03/08 05:12:40;;;;;;;8.77;4.90;;;;;;;9.85;32.89;102261.56;5113512;27;20027;-72
2022/03/08 05:15:06;;;;;;;9.10;4.60;;;;;;;10.14;33.26;102254.13;5112882;27;20072;-72
2022/03/08 05:17:32;;;;;;;9.67;4.53;;;;;;;9.18;33.66;102269.97;5113712;27;20055;-72
2022/03/08 05:19:58;;;;;;;10.70;4.90;;;;;;;9.81;33.10;102264.97;5113978;27;20147;-71
2022/03/08 05:22:23;;;;;;;8.77;5.07;;;;;;;9.41;33.83;102265.16;5112754;27;20118;-72
2022/03/08 05:24:49;;;;;;;9.47;4.83;;;;;;;9.82;33.54;102257.16;5132497;27;20112;-72
2022/03/08 05:27:14;;;;;;;10.53;5.70;;;;;;;10.13;33.27;102256.75;5113082;27;20507;-72
2022/03/08 05:29:40;;;;;;;7.37;4.67;;;;;;;9.97;33.30;102259.13;5112999;27;20060;-72
2022/03/08 05:32:06;;;;;;;9.00;4.80;;;;;;;8.92;34.15;102259.91;5113028;27;20025;-72
2022/03/08 05:34:32;;;;;;;11.43;5.37;;;;;;;9.87;33.14;102257.22;5113578;27;20027;-72
2022/03/08 05:36:57;;;;;;;12.50;5.63;;;;;;;10.42;32.52;102251.06;5112104;27;20035;-72
2022/03/08 05:39:23;;;;;;;9.77;5.33;;;;;;;9.42;33.09;102255.59;5111959;27;20028;-72
2022/03/08 05:41:48;;;;;;;12.73;4.73;;;;;;;9.65;33.34;102246.41;5113557;27;20026;-72
2022/03/08 05:44:14;;;;;;;7.47;4.67;;;;;;;9.40;33.52;102247.75;5112142;27;20103;-72
2022/03/08 05:46:39;;;;;;;7.83;4.87;;;;;;;9.98;32.90;102236.50;5131815;27;20058;-74
2022/03/08 05:49:05;;;;;;;10.30;5.27;;;;;;;8.62;35.59;102245.41;5099488;27;20385;-72
2022/03/08 05:51:30;;;;;;;11.13;4.80;;;;;;;9.18;33.97;102241.28;5111701;27;20157;-71
2022/03/08 05:53:55;;;;;;;10.67;5.00;;;;;;;9.03;34.17;102244.47;5113417;27;20019;-72
2022/03/08 05:56:21;;;;;;;9.57;4.80;;;;;;;9.24;34.29;102240.50;5131390;27;20031;-72
2022/03/08 05:58:46;;;;;;;7.53;4.27;;;;;;;9.71;32.84;102231.72;5111684;27;20019;-72
2022/03/08 06:01:12;;;;;;;11.70;5.30;;;;;;;9.07;34.23;102237.59;5112695;27;20023;-72
2022/03/08 06:03:37;;;;;;;9.10;5.27;;;;;;;9.68;33.97;102233.44;5111616;27;20023;-72
2022/03/08 06:06:03;;;;;;;11.23;5.13;;;;;;;9.21;33.71;102237.84;5112674;27;20030;-72
2022/03/08 06:08:28;;;;;;;8.43;4.37;;;;;;;9.42;33.48;102238.19;5112666;27;20019;-72
2022/03/08 06:10:54;;;;;;;10.00;5.20;;;;;;;9.75;33.25;102220.47;5112654;27;20858;-72
2022/03/08 06:13:19;;;;;;;8.83;4.67;;;;;;;10.41;32.85;102215.31;5112125;27;20027;-73
2022/03/08 06:15:45;;;;;;;7.37;4.60;;;;;;;9.83;32.59;102221.47;5112956;28;20439;-72
2022/03/08 06:18:10;;;;;;;10.37;5.13;;;;;;;10.28;32.53;102228.19;5130092;27;20035;-72
2022/03/08 06:20:35;;;;;;;11.63;4.70;;;;;;;10.46;32.14;102218.88;5132175;27;20470;-72
2022/03/08 06:23:01;;;;;;;8.97;4.70;;;;;;;10.71;32.30;102225.28;5111963;27;20035;-72
2022/03/08 06:25:26;;;;;;;8.37;4.90;;;;;;;10.22;33.34;102230.75;5112097;28;20029;-72
2022/03/08 06:27:52;;;;;;;13.33;5.50;;;;;;;9.32;34.17;102237.16;5111839;27;20470;-72
2022/03/08 06:30:17;;;;;;;11.53;5.60;;;;;;;9.70;33.65;102227.34;5112115;28;20026;-72
2022/03/08 06:32:42;;;;;;;7.93;5.30;;;;;;;10.56;32.25;102235.56;5112756;28;20053;-71
2022/03/08 06:35:08;;;;;;;7.57;4.80;;;;;;;10.79;31.93;102231.47;5131150;28;20124;-71
2022/03/08 06:37:34;;;;;;;9.17;4.97;;;;;;;10.91;31.86;102243.81;5112958;28;20020;-72
2022/03/08 06:39:59;;;;;;;10.30;5.00;;;;;;;10.25;32.15;102240.34;5111557;28;20042;-72
2022/03/08 06:42:24;;;;;;;10.27;4.90;;;;;;;9.59;32.69;102254.16;5112756;28;20034;-72
2022/03/08 06:44:50;;;;;;;8.27;4.30;;;;;;;9.63;33.32;102255.97;5131748;28;20058;-72
2022/03/08 06:47:15;;;;;;;8.87;4.63;;;;;;;9.25;33.69;102258.78;5130000;28;20027;-72
2022/03/08 06:49:41;;;;;;;7.63;4.40;;;;;;;10.32;32.52;102250.91;5113143;28;20024;-72
2022/03/08 06:52:08;;;;;;;8.47;5.20;;;;;;;9.84;34.37;102250.22;5114797;27;20046;-72
2022/03/08 06:54:35;;;;;;;10.87;5.27;;;;;;;9.52;33.14;102265.38;5116639;27;20364;-72
2022/03/08 06:57:00;;;;;;;9.60;5.10;;;;;;;10.24;33.43;102239.47;5116354;27;20390;-72
2022/03/08 06:59:25;;;;;;;8.13;4.40;;;;;;;9.56;34.31;102251.50;5116840;27;20023;-72
2022/03/08 07:01:53;;;;;;;9.77;5.83;;;;;;;9.86;33.55;102252.84;5116237;27;20050;-72
2022/03/08 07:04:19;;;;;;;10.17;4.93;;;;;;;10.20;33.20;102242.91;5135061;27;20034;-72
2022/03/08 07:06:45;;;;;;;10.43;5.30;;;;;;;10.84;31.89;102242.00;5135630;27;20371;-72
2022/03/08 07:09:10;;;;;;;11.50;5.50;;;;;;;10.85;32.04;102243.75;5115752;27;20075;-72
2022/03/08 07:11:36;;;;;;;9.57;5.23;;;;;;;10.09;32.21;102234.91;5116183;27;20034;-72
2022/03/08 07:14:03;;;;;;;9.67;4.90;;;;;;;10.96;32.21;102236.91;5116154;27;20057;-72
2022/03/08 07:16:28;;;;;;;10.07;4.90;;;;;;;10.86;31.75;102230.66;5134460;27;20182;-73
2022/03/08 07:18:54;;;;;;;10.07;5.30;;;;;;;11.70;30.36;102219.25;5099585;27;20027;-72
2022/03/08 07:21:19;;;;;;;9.23;5.17;;;;;;;10.56;31.57;102230.31;5115286;27;20386;-72
2022/03/08 07:23:44;;;;;;;7.83;4.27;;;;;;;11.10;31.16;102233.53;5116475;27;20137;-72
2022/03/08 07:26:10;;;;;;;10.30;5.60;;;;;;;10.47;32.45;102237.19;5114985;27;20069;-72
2022/03/08 07:28:36;;;;;;;7.20;4.63;;;;;;;9.77;33.02;102227.47;5116401;27;20455;-72
2022/03/08 07:31:02;;;;;;;9.97;4.77;;;;;;;9.59;32.89;102230.66;5116340;27;20027;-72
2022/03/08 07:33:27;;;;;;;7.07;4.57;;;;;;;9.30;34.24;102237.97;5134510;27;20030;-72
2022/03/08 07:35:53;;;;;;;11.07;5.03;;;;;;;9.54;33.80;102228.84;5114836;27;20027;-72
2022/03/08 07:38:18;;;;;;;10.17;5.13;;;;;;;9.96;33.07;102228.63;5115797;27;20566;-72
2022/03/08 07:40:43;;;;;;;8.37;5.17;;;;;;;10.28;32.79;102235.16;5130230;27;20024;-72
2022/03/08 07:43:10;;;;;;;11.93;5.53;;;;;;;9.93;33.22;102228.59;5094660;28;20072;-72
2022/03/08 07:45:36;;;;;;;8.13;4.50;;;;;;;9.35;34.16;102238.94;5095914;28;20031;-72
2022/03/08 07:48:02;;;;;;;12.50;5.20;;;;;;;10.78;32.19;102231.47;5107735;27;20115;-72
2022/03/08 07:50:28;;;;;;;9.47;4.13;;;;;;;10.89;31.25;102245.53;5111913;28;20030;-72
2022/03/08 07:52:54;;;;;;;8.37;5.17;;;;;;;12.53;29.33;102231.97;5111335;28;20386;-72
2022/03/08 07:55:20;;;;;;;7.87;4.83;;;;;;;11.93;30.11;102234.25;5113902;28;20047;-72
2022/03/08 07:57:45;;;;;;;6.70;4.77;;;;;;;12.48;28.87;102238.06;5109845;27;20059;-72
2022/03/08 08:00:11;;;;;;;7.93;4.63;;;;;;;12.29;29.45;102231.88;5115126;27;20118;-72
2022/03/08 08:02:37;;;;;;;9.50;5.23;;;;;;;10.94;31.20;102241.22;5133145;27;20023;-73
2022/03/08 08:05:03;;;;;;;11.13;4.93;;;;;;;11.94;29.73;102240.34;5114521;27;20019;-72
2022/03/08 08:07:29;;;;;;;7.33;4.73;;;;;;;11.68;30.56;102247.16;5111634;27;20027;-73
2022/03/08 08:09:54;;;;;;;11.07;5.37;;;;;;;11.84;30.14;102250.78;5134123;27;20379;-72
2022/03/08 08:12:20;;;;;;;9.87;5.30;;;;;;;11.74;30.29;102258.56;5132422;27;20026;-72
2022/03/08 08:14:45;;;;;;;11.13;5.90;;;;;;;11.50;30.63;102265.34;5114225;27;20031;-72
2022/03/08 08:17:10;;;;;;;11.63;4.97;;;;;;;12.04;30.79;102261.41;5113716;27;20039;-72
2022/03/08 08:19:36;;;;;;;9.40;4.93;;;;;;;11.52;30.49;102263.59;5114930;27;20465;-72
2022/03/08 08:22:01;;;;;;;10.93;5.50;;;;;;;11.98;30.16;102261.41;5133490;27;20030;-72
2022/03/08 08:24:26;;;;;;;9.33;4.97;;;;;;;11.11;31.21;102267.56;5113185;27;20122;-72
2022/03/08 08:26:52;;;;;;;7.90;5.37;;;;;;;12.26;29.52;102263.31;5112205;27;20031;-72
2022/03/08 08:29:17;;;;;;;10.43;5.07;;;;;;;10.61;31.43;102271.34;5115223;27;20015;-72
2022/03/08 08:31:42;;;;;;;14.50;5.23;;;;;;;11.20;30.74;102266.81;5114658;27;20019;-72
2022/03/08 08:34:08;;;;;;;11.00;4.83;;;;;;;10.97;31.47;102270.03;5129436;27;20027;-72
2022/03/08 08:36:34;;;;;;;9.13;4.93;;;;;;;11.06;31.23;102264.03;5115199;27;20026;-72
2022/03/08 08:38:59;;;;;;;8.73;5.27;;;;;;;12.80;29.08;102255.69;5114175;27;20026;-72
2022/03/08 08:41:25;;;;;;;8.67;5.40;;;;;;;11.92;31.11;102256.06;5115087;27;20126;-72
2022/03/08 08:43:51;;;;;;;9.70;4.90;;;;;;;12.17;30.21;102248.38;5133089;27;20052;-72
2022/03/08 08:46:17;;;;;;;7.13;4.90;;;;;;;11.34;31.02;102253.84;5114219;27;20779;-72
2022/03/08 08:48:42;;;;;;;12.73;5.53;;;;;;;11.65;30.15;102243.63;5133476;27;20034;-73
2022/03/08 08:51:07;;;;;;;10.07;4.90;;;;;;;11.42;30.85;102253.94;5114316;27;20069;-72
2022/03/08 08:53:33;;;;;;;8.90;5.63;;;;;;;11.79;30.23;102251.63;5096333;28;20093;-72
2022/03/08 08:55:59;;;;;;;8.70;5.03;;;;;;;12.22;29.37;102236.19;5108648;27;20038;-72
2022/03/08 08:58:24;;;;;;;6.07;3.77;;;;;;;11.16;30.48;102241.47;5114071;27;20391;-72
2022/03/08 09:00:49;;;;;;;7.63;4.90;;;;;;;11.86;29.99;102235.06;5114082;27;20023;-72
2022/03/08 09:03:16;;;;;;;7.77;4.93;;;;;;;11.90;30.10;102234.22;5131785;27;20118;-72
2022/03/08 09:05:45;;;;;;;7.67;4.70;;;;;;;12.07;29.50;102231.72;5106927;27;20103;-73
2022/03/08 09:08:11;;;;;;;7.13;4.63;;;;;;;11.50;29.35;102233.94;5130124;27;20042;-72
2022/03/08 09:10:37;;;;;;;7.23;4.80;;;;;;;11.13;30.12;102244.06;5112866;27;20023;-72
2022/03/08 09:13:05;;;;;;;7.00;4.40;;;;;;;12.83;28.17;102224.19;5132549;27;20049;-72
2022/03/08 09:15:31;;;;;;;7.83;4.80;;;;;;;11.23;30.13;102230.19;5112117;27;20041;-72
2022/03/08 09:17:57;;;;;;;7.67;4.90;;;;;;;13.10;28.31;102222.53;5101954;27;20080;-72
2022/03/08 09:20:25;;;;;;;7.47;4.63;;;;;;;12.83;28.56;102218.94;5107118;27;20031;-72
2022/03/08 09:22:54;;;;;;;6.67;4.23;;;;;;;11.76;29.39;102220.13;5112493;27;20055;-72
2022/03/08 09:25:19;;;;;;;7.30;5.03;;;;;;;13.13;28.03;102212.00;5112788;27;20031;-72
2022/03/08 09:27:45;;;;;;;8.07;4.93;;;;;;;14.68;26.04;102203.00;5113189;27;20376;-72
2022/03/08 09:30:12;;;;;;;9.37;5.17;;;;;;;14.19;25.86;102203.19;5113520;27;20114;-72
2022/03/08 09:32:37;;;;;;;9.70;5.10;;;;;;;15.81;24.21;102198.66;5113478;27;20033;-72
2022/03/08 09:35:04;;;;;;;7.70;4.80;;;;;;;15.03;24.70;102207.19;5128267;27;20027;-73
2022/03/08 09:37:30;;;;;;;6.43;3.90;;;;;;;14.74;24.66;102202.09;5112264;27;20031;-72
2022/03/08 09:39:55;;;;;;;5.80;4.00;;;;;;;15.06;24.21;102199.25;5113489;27;20039;-72
2022/03/08 09:42:21;;;;;;;6.70;4.40;;;;;;;14.88;23.75;102213.41;5112701;27;20023;-72
2022/03/08 09:44:48;;;;;;;5.67;3.83;;;;;;;14.90;23.95;102202.88;5113493;27;20027;-72
2022/03/08 09:47:18;;;;;;;7.60;4.70;;;;;;;16.50;22.52;102205.78;5112128;27;20458;-72
2022/03/08 09:49:44;;;;;;;6.33;4.07;;;;;;;15.01;23.19;102203.69;5112741;27;20498;-72
2022/03/08 09:52:09;;;;;;;8.43;4.17;;;;;;;16.71;22.41;102194.06;5112847;27;20128;-72
2022/03/08 09:54:34;;;;;;;5.90;3.97;;;;;;;15.24;23.30;102192.97;5112568;27;20516;-72
2022/03/08 09:57:07;;;;;;;8.63;4.90;;;;;;;16.18;22.67;102203.53;5095170;27;20501;-72
2022/03/08 09:59:32;;;;;;;;;;;;;;;15.18;23.50;102197.41;5113602;27;20211;-72
2022/03/08 10:01:58;;;;;;;7.93;4.77;;;;;;;16.94;21.90;102190.25;5093471;28;20022;-72
2022/03/08 10:04:23;;;;;;;6.80;4.43;;;;;;;16.04;23.42;102185.22;5091970;28;20032;-72
2022/03/08 10:06:50;;;;;;;5.70;4.27;;;;;;;17.23;21.75;102170.44;5106829;27;20493;-72
2022/03/08 10:09:20;;;;;;;6.77;4.40;;;;;;;17.03;22.43;102168.94;5130542;27;20022;-72
2022/03/08 10:11:54;;;;;;;7.70;4.37;;;;;;;16.16;22.94;102189.50;5112365;27;20023;-72
2022/03/08 10:14:38;;;;;;;6.27;4.47;;;;;;;17.91;21.66;102170.06;5094639;28;20030;-72
2022/03/08 10:17:09;;;;;;;8.67;4.83;;;;;;;15.60;23.14;102176.88;5111648;27;20031;-72
2022/03/08 10:19:45;;;;;;;7.93;5.00;;;;;;;15.40;23.42;102172.66;5111969;27;20023;-72
2022/03/08 10:22:32;;;;;;;5.97;4.53;;;;;;;15.40;23.63;102171.75;5124524;27;20264;-72
2022/03/08 10:25:22;;;;;;;6.23;4.43;;;;;;;15.92;23.31;102173.03;5106143;28;20080;-72
2022/03/08 10:27:56;;;;;;;5.97;4.20;;;;;;;14.72;24.50;102178.41;5131415;27;20103;-72
2022/03/08 10:30:27;;;;;;;6.50;3.73;;;;;;;16.34;22.77;102170.78;5112751;28;20062;-72
2022/03/08 10:32:59;;;;;;;7.63;4.17;;;;;;;16.51;22.47;102172.34;5112313;28;20023;-72
2022/03/08 10:35:27;;;;;;;6.97;4.27;;;;;;;15.37;22.94;102163.91;5112258;28;20328;-72
2022/03/08 10:37:57;;;;;;;4.43;3.90;;;;;;;15.44;22.97;102153.31;5111723;28;20300;-72
2022/03/08 10:40:32;;;;;;;5.47;4.23;;;;;;;16.37;21.48;102157.56;5110186;28;20042;-72
2022/03/08 10:43:02;;;;;;;4.30;3.50;;;;;;;15.82;21.50;102152.97;5112505;28;20027;-72
2022/03/08 10:45:30;;;;;;;5.90;4.10;;;;;;;16.48;21.95;102151.28;5128166;28;20031;-72
2022/03/08 10:47:55;;;;;;;6.63;4.17;;;;;;;15.47;22.85;102147.13;5092153;28;20483;-72
2022/03/08 10:50:30;;;;;;;8.53;4.37;;;;;;;16.38;21.53;102148.75;5102022;28;20026;-72
2022/03/08 10:52:57;;;;;;;5.97;3.93;;;;;;;17.13;21.72;102138.88;5091223;28;20048;-72
2022/03/08 10:55:31;;;;;;;6.03;3.73;;;;;;;16.43;21.60;102146.94;5108055;27;20373;-72
2022/03/08 10:57:59;;;;;;;6.83;4.20;;;;;;;16.41;22.17;102140.78;5106084;28;20111;-72
2022/03/08 11:00:31;;;;;;;7.53;4.23;;;;;;;18.22;20.41;102121.84;5108777;28;20035;-72
2022/03/08 11:03:02;;;;;;;7.33;4.43;;;;;;;16.93;21.31;102125.97;5112673;28;20418;-72
2022/03/08 11:05:33;;;;;;;4.57;3.53;;;;;;;16.34;21.75;102131.22;5131307;28;20095;-72
2022/03/08 11:07:59;;;;;;;5.43;3.93;;;;;;;16.27;21.50;102134.84;5105505;28;20102;-72
2022/03/08 11:10:28;;;;;;;6.77;4.07;;;;;;;16.54;22.08;102122.16;5110751;28;20043;-72
2022/03/08 11:12:54;;;;;;;5.30;3.87;;;;;;;17.98;20.74;102110.00;5092094;28;20023;-72
2022/03/08 11:15:21;;;;;;;5.97;3.70;;;;;;;16.62;21.77;102107.06;5094114;28;20022;-72
2022/03/08 11:17:49;;;;;;;5.90;4.17;;;;;;;17.33;21.38;102113.88;5131407;28;20042;-72
2022/03/08 11:20:17;;;;;;;8.70;4.20;;;;;;;18.36;20.94;102097.72;5129917;28;20104;-72